createdAt,value
2018-04-11T00:03:12.374Z,25.50
2018-04-11T00:07:20.047Z,26.40
2018-04-11T00:11:25.842Z,26.30
2018-04-11T00:15:31.822Z,24.10
2018-04-11T00:19:38.161Z,22.60
2018-04-11T00:23:44.309Z,22.30
2018-04-11T00:27:50.100Z,22.70
2018-04-11T00:31:56.068Z,21.90
2018-04-11T00:36:01.908Z,23.10
2018-04-11T00:40:07.606Z,23.80
2018-04-11T00:44:13.562Z,23.00
2018-04-11T00:48:20.124Z,22.90
2018-04-11T00:52:26.226Z,22.90
2018-04-11T00:56:31.753Z,22.70
2018-04-11T01:00:38.218Z,23.40
2018-04-11T01:04:44.747Z,23.10
2018-04-11T01:08:51.390Z,23.10
2018-04-11T01:12:57.963Z,22.00
2018-04-11T01:17:03.592Z,21.90
2018-04-11T01:21:09.449Z,22.60
2018-04-11T01:25:15.710Z,22.50
2018-04-11T01:29:21.592Z,24.90
2018-04-11T01:33:27.308Z,24.50
2018-04-11T01:37:33.745Z,22.90
2018-04-11T01:41:39.622Z,22.90
2018-04-11T01:45:46.378Z,24.70
2018-04-11T01:49:52.112Z,24.60
2018-04-11T01:53:57.956Z,25.80
2018-04-11T01:58:04.198Z,24.80
2018-04-11T02:02:10.332Z,25.10
2018-04-11T02:06:16.465Z,26.10
2018-04-11T02:10:24.122Z,27.40
2018-04-11T02:14:30.223Z,26.90
2018-04-11T02:18:36.130Z,29.00
2018-04-11T02:22:42.022Z,27.80
2018-04-11T02:26:47.998Z,28.00
2018-04-11T02:30:53.834Z,28.70
2018-04-11T02:34:59.689Z,29.10
2018-04-11T02:39:06.225Z,29.40
2018-04-11T02:43:12.465Z,29.50
2018-04-11T02:47:19.156Z,30.40
2018-04-11T02:51:24.938Z,30.20
2018-04-11T02:55:30.738Z,31.40
2018-04-11T02:59:38.103Z,31.80
2018-04-11T03:03:44.797Z,31.70
2018-04-11T03:07:50.870Z,31.70
2018-04-11T03:11:57.433Z,32.60
2018-04-11T03:16:03.423Z,33.20
2018-04-11T03:20:09.372Z,33.80
2018-04-11T03:24:15.961Z,34.70
2018-04-11T03:28:21.644Z,34.80
2018-04-11T03:32:28.062Z,35.70
2018-04-11T03:36:34.189Z,35.60
2018-04-11T03:40:40.016Z,35.80
2018-04-11T03:44:46.845Z,36.60
2018-04-11T03:48:53.629Z,36.70
2018-04-11T03:53:00.351Z,36.60
2018-04-11T03:57:07.219Z,37.20
2018-04-11T04:01:13.203Z,37.20
2018-04-11T04:05:19.238Z,37.30
2018-04-11T04:09:25.511Z,38.20
2018-04-11T04:13:43.708Z,39.00
2018-04-11T04:18:01.107Z,39.70
2018-04-11T04:22:08.048Z,41.70
2018-04-11T04:26:13.869Z,41.60
2018-04-11T04:30:20.108Z,42.50
2018-04-11T04:34:27.815Z,43.90
2018-04-11T04:38:33.784Z,43.90
2018-04-11T04:42:39.544Z,44.50
2018-04-11T04:46:45.868Z,45.20
2018-04-11T04:50:52.685Z,48.30
2018-04-11T04:54:58.632Z,48.30
2018-04-11T04:59:04.650Z,48.80
2018-04-11T05:03:10.848Z,49.20
2018-04-11T05:07:16.814Z,48.80
2018-04-11T05:11:22.644Z,49.00
2018-04-11T05:15:29.798Z,49.40
2018-04-11T05:19:36.468Z,50.80
2018-04-11T05:23:42.270Z,50.80
2018-04-11T05:27:48.871Z,52.80
2018-04-11T05:31:55.074Z,52.80
2018-04-11T05:36:00.838Z,53.20
2018-04-11T05:40:07.435Z,53.60
2018-04-11T05:44:13.677Z,54.10
2018-04-11T05:48:19.671Z,54.60
2018-04-11T05:52:25.745Z,55.10
2018-04-11T05:56:32.531Z,55.70
2018-04-11T06:00:39.334Z,56.00
2018-04-11T06:04:45.912Z,56.60
2018-04-11T06:08:51.683Z,56.60
2018-04-11T06:12:57.578Z,56.90
2018-04-11T06:17:04.343Z,57.20
2018-04-11T06:21:10.959Z,57.80
2018-04-11T06:25:16.645Z,57.80
2018-04-11T06:29:22.496Z,58.20
2018-04-11T06:33:28.358Z,58.40
2018-04-11T06:37:34.400Z,58.70
2018-04-11T06:41:40.042Z,58.80
2018-04-11T06:45:45.856Z,59.40
2018-04-11T06:49:51.765Z,60.70
2018-04-11T06:53:57.652Z,61.70
2018-04-11T06:58:03.586Z,61.70
2018-04-11T07:02:09.401Z,61.80
2018-04-11T07:06:15.081Z,61.50
2018-04-11T07:10:21.105Z,62.60
2018-04-11T07:14:26.814Z,62.00
2018-04-11T07:18:33.211Z,63.00
2018-04-11T07:22:39.855Z,63.00
2018-04-11T07:26:45.578Z,62.90
2018-04-11T07:30:51.841Z,63.00
2018-04-11T07:34:58.246Z,63.70
2018-04-11T07:39:04.639Z,64.20
2018-04-11T07:43:10.318Z,65.40
2018-04-11T07:47:16.369Z,68.00
2018-04-11T07:51:22.251Z,72.40
2018-04-11T07:55:28.111Z,74.80
2018-04-11T07:59:33.917Z,75.50
2018-04-11T08:03:39.604Z,76.00
2018-04-11T08:07:45.419Z,77.20
2018-04-11T08:11:51.961Z,78.10
2018-04-11T08:15:57.854Z,78.00
2018-04-11T08:20:06.233Z,77.90
2018-04-11T08:24:11.992Z,78.40
2018-04-11T08:28:18.619Z,80.80
2018-04-11T08:32:24.518Z,80.60
2018-04-11T08:36:31.293Z,81.10
2018-04-11T08:40:36.879Z,81.00
2018-04-11T08:44:42.621Z,81.00
2018-04-11T08:48:48.221Z,81.90
2018-04-11T08:52:54.092Z,82.60
2018-04-11T08:56:59.798Z,81.60
2018-04-11T09:01:05.400Z,82.70
2018-04-11T09:05:12.085Z,83.00
2018-04-11T09:09:18.020Z,82.90
2018-04-11T09:13:23.612Z,83.60
2018-04-11T09:17:29.342Z,84.00
2018-04-11T09:21:36.044Z,84.70
2018-04-11T09:25:41.727Z,85.00
2018-04-11T09:29:49.994Z,86.40
2018-04-11T09:33:55.759Z,86.30
2018-04-11T09:38:02.590Z,84.10
2018-04-11T09:42:08.535Z,84.00
2018-04-11T09:46:14.315Z,85.20
2018-04-11T09:50:20.871Z,90.00
2018-04-11T09:54:26.379Z,90.00
2018-04-11T09:58:32.303Z,90.30
2018-04-11T10:02:38.849Z,90.40
2018-04-11T10:06:44.878Z,90.40
2018-04-11T10:10:50.693Z,90.50
2018-04-11T10:14:57.065Z,90.80
2018-04-11T10:19:02.858Z,90.80
2018-04-11T10:23:09.519Z,90.80
2018-04-11T10:27:16.158Z,91.30
2018-04-11T10:31:21.851Z,91.30
2018-04-11T10:35:27.601Z,91.20
2018-04-11T10:39:33.633Z,91.20
2018-04-11T10:43:39.192Z,91.10
2018-04-11T10:47:45.847Z,88.80
2018-04-11T10:51:51.500Z,88.70
2018-04-11T10:55:57.312Z,87.60
2018-04-11T11:00:03.242Z,88.10
2018-04-11T11:04:09.258Z,89.30
2018-04-11T11:08:15.857Z,89.00
2018-04-11T11:12:21.725Z,89.00
2018-04-11T11:16:32.938Z,87.60
2018-04-11T11:20:39.164Z,88.10
2018-04-11T11:24:45.622Z,90.00
2018-04-11T11:28:51.240Z,90.10
2018-04-11T11:32:56.956Z,88.70
2018-04-11T11:37:02.991Z,87.10
2018-04-11T11:41:09.380Z,81.30
2018-04-11T11:45:14.944Z,81.20
2018-04-11T11:49:20.714Z,80.20
2018-04-11T11:53:26.350Z,79.80
2018-04-11T11:57:32.326Z,78.50
2018-04-11T12:01:38.767Z,79.00
2018-04-11T12:05:44.499Z,78.90
2018-04-11T12:09:50.206Z,79.20
2018-04-11T12:13:56.066Z,80.30
2018-04-11T12:22:26.036Z,81.00
2018-04-11T12:26:32.967Z,81.70
2018-04-11T12:30:39.966Z,83.80
2018-04-11T12:34:45.756Z,83.80
2018-04-11T12:38:53.140Z,85.40
2018-04-11T12:42:59.527Z,85.00
2018-04-11T12:47:06.085Z,85.80
2018-04-11T12:51:11.832Z,85.80
2018-04-11T12:55:17.719Z,87.20
2018-04-11T12:59:23.665Z,87.00
2018-04-11T13:03:29.465Z,88.40
2018-04-11T13:07:35.164Z,88.60
2018-04-11T13:11:40.931Z,88.00
2018-04-11T13:15:47.511Z,88.20
2018-04-11T13:19:53.475Z,88.40
2018-04-11T13:24:00.569Z,88.50
2018-04-11T13:28:07.812Z,88.40
2018-04-11T13:32:13.742Z,88.40
2018-04-11T13:36:20.295Z,88.60
2018-04-11T13:40:26.540Z,88.60
2018-04-11T13:44:32.680Z,88.80
2018-04-11T13:48:39.344Z,89.90
2018-04-11T13:52:45.167Z,89.90
2018-04-11T13:56:50.854Z,90.00
2018-04-11T14:00:56.579Z,89.30
2018-04-11T14:05:02.614Z,88.40
2018-04-11T14:09:08.493Z,87.10
2018-04-11T14:13:14.496Z,85.80
2018-04-11T14:17:20.462Z,84.40
2018-04-11T14:21:26.422Z,83.30
2018-04-11T14:25:32.344Z,83.10
2018-04-11T14:29:39.013Z,82.50
2018-04-11T14:33:44.881Z,79.70
2018-04-11T14:37:50.699Z,77.60
2018-04-11T14:41:56.743Z,77.80
2018-04-11T14:46:02.951Z,79.10
2018-04-11T14:50:09.005Z,78.00
2018-04-11T14:54:15.360Z,79.80
2018-04-11T14:58:21.392Z,81.60
2018-04-11T15:02:27.945Z,84.00
2018-04-11T15:06:34.359Z,84.00
2018-04-11T15:10:40.768Z,82.70
2018-04-11T15:14:46.665Z,82.70
2018-04-11T15:18:52.626Z,81.30
2018-04-11T15:22:58.542Z,80.10
2018-04-11T15:27:04.812Z,78.70
2018-04-11T15:31:11.650Z,77.80
2018-04-11T15:35:17.647Z,77.20
2018-04-11T15:39:23.590Z,77.30
2018-04-11T15:43:29.367Z,76.50
2018-04-11T15:47:35.357Z,76.10
2018-04-11T15:51:41.209Z,75.10
2018-04-11T15:55:47.599Z,73.00
2018-04-11T15:59:54.099Z,72.10
2018-04-11T16:03:59.922Z,72.10
2018-04-11T16:08:06.661Z,70.60
2018-04-11T16:12:12.654Z,70.60
2018-04-11T16:16:18.471Z,68.90
2018-04-11T16:20:24.301Z,68.30
2018-04-11T16:24:30.152Z,67.40
2018-04-11T16:28:37.000Z,63.60
2018-04-11T16:32:43.582Z,63.60
2018-04-11T16:36:49.481Z,63.20
2018-04-11T16:40:56.258Z,61.60
2018-04-11T16:45:01.939Z,61.60
2018-04-11T16:49:08.258Z,60.80
2018-04-11T16:53:14.357Z,58.70
2018-04-11T16:57:20.200Z,58.60
2018-04-11T17:01:26.012Z,58.10
2018-04-11T17:05:31.931Z,57.90
2018-04-11T17:09:38.109Z,55.70
2018-04-11T17:13:44.815Z,53.10
2018-04-11T17:17:51.057Z,53.10
2018-04-11T17:22:08.315Z,51.90
2018-04-11T17:26:25.489Z,50.80
2018-04-11T17:30:42.551Z,51.10
2018-04-11T17:34:49.530Z,47.20
2018-04-11T17:38:54.992Z,49.20
2018-04-11T17:43:00.838Z,48.20
2018-04-11T17:47:10.429Z,47.60
2018-04-11T17:51:16.650Z,47.60
2018-04-11T17:55:22.480Z,45.60
2018-04-11T17:59:28.614Z,45.20
2018-04-11T18:03:34.415Z,46.10
2018-04-11T18:07:40.434Z,47.10
2018-04-11T18:11:46.811Z,47.20
2018-04-11T18:15:54.595Z,46.70
2018-04-11T18:20:00.643Z,46.70
2018-04-11T18:24:07.317Z,45.60
2018-04-11T18:28:13.249Z,45.60
2018-04-11T18:32:19.608Z,46.40
2018-04-11T18:36:26.097Z,47.20
2018-04-11T18:40:31.989Z,47.00
2018-04-11T18:44:37.713Z,46.60
2018-04-11T18:48:43.434Z,50.90
2018-04-11T18:52:49.789Z,52.70
2018-04-11T18:56:56.513Z,57.00
2018-04-11T19:01:03.171Z,56.50
2018-04-11T19:05:09.394Z,56.50
2018-04-11T19:09:15.132Z,57.20
2018-04-11T19:13:22.020Z,55.70
2018-04-11T19:17:27.961Z,55.70
2018-04-11T19:21:35.408Z,56.00
2018-04-11T19:25:41.209Z,56.00
2018-04-11T19:29:47.050Z,55.70
2018-04-11T19:33:54.562Z,56.60
2018-04-11T19:38:01.955Z,56.60
2018-04-11T19:42:08.189Z,56.80
2018-04-11T19:46:14.005Z,57.20
2018-04-11T19:50:19.785Z,57.60
2018-04-11T19:54:25.763Z,57.80
2018-04-11T19:58:31.704Z,57.60
2018-04-11T20:02:37.490Z,57.00
2018-04-11T20:06:43.670Z,56.10
2018-04-11T20:10:49.388Z,56.10
2018-04-11T20:14:55.866Z,54.70
2018-04-11T20:19:01.941Z,54.50
2018-04-11T20:23:07.667Z,53.80
2018-04-11T20:27:13.389Z,53.50
2018-04-11T20:31:19.529Z,50.00
2018-04-11T20:35:25.530Z,52.10
2018-04-11T20:39:32.227Z,51.20
2018-04-11T20:43:38.190Z,49.80
2018-04-11T20:47:44.406Z,49.90
2018-04-11T20:51:51.040Z,50.00
2018-04-11T20:55:57.116Z,50.00
2018-04-11T21:00:02.913Z,50.20
2018-04-11T21:04:09.632Z,48.60
2018-04-11T21:08:15.606Z,47.90
2018-04-11T21:12:21.613Z,47.80
2018-04-11T21:16:27.426Z,47.80
2018-04-11T21:20:34.071Z,48.50
2018-04-11T21:24:39.932Z,49.50
2018-04-11T21:28:45.738Z,49.20
2018-04-11T21:32:51.876Z,48.90
2018-04-11T21:36:57.869Z,49.10
2018-04-11T21:41:04.781Z,49.40
2018-04-11T21:45:11.977Z,47.50
2018-04-11T21:49:17.785Z,47.50
2018-04-11T21:53:23.682Z,45.70
2018-04-11T21:57:30.319Z,43.70
2018-04-11T22:01:36.516Z,43.60
2018-04-11T22:05:42.288Z,44.90
2018-04-11T22:09:48.187Z,45.50
2018-04-11T22:13:54.023Z,44.80
2018-04-11T22:18:00.011Z,45.10
2018-04-11T22:22:06.242Z,44.80
2018-04-11T22:26:12.308Z,44.40
2018-04-11T22:30:20.509Z,43.20
2018-04-11T22:34:26.477Z,43.20
2018-04-11T22:38:33.425Z,44.20
2018-04-11T22:42:40.357Z,44.10
2018-04-11T22:46:46.974Z,44.30
2018-04-11T22:50:53.084Z,44.30
2018-04-11T22:54:58.921Z,48.70
2018-04-11T22:59:05.156Z,48.80
2018-04-11T23:03:13.863Z,49.60
2018-04-11T23:07:20.132Z,49.20
2018-04-11T23:11:26.111Z,47.40
2018-04-11T23:15:32.767Z,46.10
2018-04-11T23:19:38.912Z,45.60
2018-04-11T23:23:46.007Z,47.30
2018-04-11T23:27:52.618Z,47.00
2018-04-11T23:31:58.345Z,47.10
2018-04-11T23:36:05.088Z,47.00
2018-04-11T23:40:10.859Z,47.00
2018-04-11T23:44:17.646Z,47.40
2018-04-11T23:48:23.506Z,48.90
2018-04-11T23:52:29.494Z,51.20
2018-04-11T23:56:35.440Z,51.20
